createdAt,value
2018-05-12T00:00:02.187Z,61.50
2018-05-12T00:02:29.748Z,61.60
2018-05-12T00:04:57.290Z,61.60
2018-05-12T00:07:24.856Z,61.60
2018-05-12T00:09:52.397Z,61.70
2018-05-12T00:12:20.727Z,61.80
2018-05-12T00:14:48.267Z,61.70
2018-05-12T00:17:15.841Z,61.90
2018-05-12T00:19:43.380Z,61.90
2018-05-12T00:22:10.961Z,62.10
2018-05-12T00:24:38.516Z,62.00
2018-05-12T00:27:06.082Z,62.20
2018-05-12T00:29:33.621Z,62.30
2018-05-12T00:32:01.193Z,62.40
2018-05-12T00:34:28.728Z,62.40
2018-05-12T00:36:57.057Z,62.70
2018-05-12T00:39:24.596Z,62.60
2018-05-12T00:41:52.159Z,62.90
2018-05-12T00:44:19.687Z,63.10
2018-05-12T00:46:47.256Z,63.20
2018-05-12T00:49:14.794Z,63.50
2018-05-12T00:51:43.120Z,63.70
2018-05-12T00:54:10.656Z,63.60
2018-05-12T00:56:38.218Z,63.60
2018-05-12T00:59:05.749Z,63.60
2018-05-12T01:01:34.128Z,63.70
2018-05-12T01:04:02.433Z,63.70
2018-05-12T01:06:30.004Z,63.70
2018-05-12T01:08:57.565Z,63.80
2018-05-12T01:11:25.101Z,63.80
2018-05-12T01:13:53.437Z,64.00
2018-05-12T01:16:20.967Z,64.00
2018-05-12T01:18:48.534Z,64.10
2018-05-12T01:21:16.078Z,64.20
2018-05-12T01:23:43.651Z,64.10
2018-05-12T01:26:11.217Z,64.40
2018-05-12T01:28:38.772Z,64.50
2018-05-12T01:31:06.313Z,64.50
2018-05-12T01:33:33.886Z,64.40
2018-05-12T01:36:01.433Z,64.40
2018-05-12T01:38:28.999Z,64.70
2018-05-12T01:40:56.539Z,64.80
2018-05-12T01:43:24.856Z,65.00
2018-05-12T01:45:52.410Z,65.00
2018-05-12T01:48:19.979Z,65.00
2018-05-12T01:50:47.509Z,65.10
2018-05-12T01:53:15.068Z,65.20
2018-05-12T01:55:42.610Z,65.00
2018-05-12T01:58:10.946Z,65.20
2018-05-12T02:00:38.517Z,65.10
2018-05-12T02:03:06.093Z,65.90
2018-05-12T02:05:33.620Z,66.10
2018-05-12T02:08:01.191Z,65.40
2018-05-12T02:10:28.731Z,65.50
2018-05-12T02:12:56.293Z,65.60
2018-05-12T02:15:23.823Z,65.60
2018-05-12T02:17:52.144Z,66.00
2018-05-12T02:20:19.684Z,66.00
2018-05-12T02:22:47.251Z,66.00
2018-05-12T02:25:14.786Z,66.00
2018-05-12T02:27:42.357Z,66.00
2018-05-12T02:30:09.897Z,66.10
2018-05-12T02:32:38.230Z,66.40
2018-05-12T02:35:05.770Z,66.30
2018-05-12T02:37:33.329Z,66.60
2018-05-12T02:40:00.889Z,66.50
2018-05-12T02:42:28.429Z,66.70
2018-05-12T02:44:55.996Z,66.60
2018-05-12T02:47:23.539Z,66.70
2018-05-12T02:49:51.869Z,66.90
2018-05-12T02:52:19.408Z,66.90
2018-05-12T02:54:46.973Z,67.10
2018-05-12T02:57:14.535Z,67.00
2018-05-12T02:59:42.109Z,67.00
2018-05-12T03:02:09.640Z,67.80
2018-05-12T03:04:37.209Z,67.30
2018-05-12T03:07:04.744Z,67.10
2018-05-12T03:09:32.303Z,67.10
2018-05-12T03:11:59.850Z,67.10
2018-05-12T03:14:28.190Z,67.50
2018-05-12T03:16:55.721Z,67.40
2018-05-12T03:19:23.284Z,67.40
2018-05-12T03:21:51.746Z,67.50
2018-05-12T03:24:20.082Z,67.80
2018-05-12T03:26:47.619Z,67.70
2018-05-12T03:29:15.176Z,67.70
2018-05-12T03:31:42.744Z,67.90
2018-05-12T03:34:10.286Z,67.90
2018-05-12T03:36:37.850Z,67.90
2018-05-12T03:39:05.389Z,67.90
2018-05-12T03:41:32.960Z,68.10
2018-05-12T03:44:00.488Z,68.20
2018-05-12T03:46:28.052Z,68.10
2018-05-12T03:48:56.352Z,68.30
2018-05-12T03:51:23.913Z,68.20
2018-05-12T03:53:51.448Z,68.30
2018-05-12T03:56:19.795Z,67.60
2018-05-12T03:58:47.329Z,67.60
2018-05-12T04:01:14.883Z,68.80
2018-05-12T04:03:42.438Z,68.80
2018-05-12T04:06:21.773Z,68.70
2018-05-12T04:09:02.060Z,69.00
2018-05-12T04:11:41.436Z,69.10
2018-05-12T04:14:09.008Z,69.10
2018-05-12T04:16:37.304Z,69.10
2018-05-12T04:19:04.911Z,69.10
2018-05-12T04:21:32.453Z,69.00
2018-05-12T04:24:00.018Z,69.10
2018-05-12T04:26:27.540Z,69.10
2018-05-12T04:28:55.099Z,69.20
2018-05-12T04:31:22.638Z,69.10
2018-05-12T04:33:50.973Z,69.30
2018-05-12T04:36:18.505Z,69.30
2018-05-12T04:38:46.072Z,69.20
2018-05-12T04:41:13.609Z,69.30
2018-05-12T04:43:41.938Z,69.10
2018-05-12T04:46:09.477Z,69.10
2018-05-12T04:48:37.038Z,69.10
2018-05-12T04:51:04.572Z,69.00
2018-05-12T04:53:32.145Z,69.00
2018-05-12T04:55:59.685Z,69.00
2018-05-12T04:58:28.007Z,68.90
2018-05-12T05:00:55.538Z,68.80
2018-05-12T05:03:23.118Z,68.90
2018-05-12T05:05:50.652Z,69.00
2018-05-12T05:08:19.029Z,69.30
2018-05-12T05:10:46.553Z,69.10
2018-05-12T05:13:14.086Z,69.30
2018-05-12T05:15:41.656Z,69.30
2018-05-12T05:18:09.204Z,69.30
2018-05-12T05:20:36.778Z,69.40
2018-05-12T05:23:04.305Z,69.30
2018-05-12T05:25:31.860Z,69.10
2018-05-12T05:27:59.408Z,69.20
2018-05-12T05:30:27.736Z,69.20
2018-05-12T05:32:55.273Z,69.10
2018-05-12T05:35:22.839Z,69.10
2018-05-12T05:37:50.373Z,69.10
2018-05-12T05:40:18.703Z,69.40
2018-05-12T05:42:46.237Z,69.30
2018-05-12T05:45:13.803Z,69.40
2018-05-12T05:47:41.346Z,69.20
2018-05-12T05:50:08.996Z,70.00
2018-05-12T05:52:36.486Z,69.40
2018-05-12T05:55:04.056Z,69.40
2018-05-12T05:57:31.601Z,69.30
2018-05-12T05:59:59.173Z,69.10
2018-05-12T06:02:26.704Z,69.20
2018-05-12T06:04:54.269Z,69.30
2018-05-12T06:07:21.806Z,69.20
2018-05-12T06:09:49.377Z,69.20
2018-05-12T06:12:16.921Z,69.20
2018-05-12T06:14:45.231Z,69.00
2018-05-12T06:17:12.799Z,69.00
2018-05-12T06:19:40.345Z,68.90
2018-05-12T06:22:07.920Z,68.80
2018-05-12T06:24:35.456Z,68.70
2018-05-12T06:27:03.028Z,69.60
2018-05-12T06:29:30.574Z,68.80
2018-05-12T06:31:58.176Z,68.60
2018-05-12T06:34:25.718Z,68.30
2018-05-12T06:36:53.292Z,68.20
2018-05-12T06:39:20.831Z,68.00
2018-05-12T06:41:48.399Z,67.80
2018-05-12T06:44:15.954Z,68.00
2018-05-12T06:46:43.521Z,67.90
2018-05-12T06:49:11.086Z,67.70
2018-05-12T06:51:38.648Z,67.80
2018-05-12T06:54:06.187Z,67.60
2018-05-12T06:56:33.761Z,67.70
2018-05-12T06:59:01.294Z,67.80
2018-05-12T07:01:29.648Z,66.80
2018-05-12T07:03:57.193Z,66.80
2018-05-12T07:06:24.762Z,66.80
2018-05-12T07:08:52.315Z,66.70
2018-05-12T07:11:19.894Z,66.50
2018-05-12T07:13:47.457Z,66.20
2018-05-12T07:16:15.025Z,66.00
2018-05-12T07:18:43.353Z,65.80
2018-05-12T07:21:10.918Z,65.80
2018-05-12T07:23:38.479Z,65.40
2018-05-12T07:26:06.068Z,65.30
2018-05-12T07:28:33.646Z,65.20
2018-05-12T07:31:01.953Z,64.80
2018-05-12T07:33:29.510Z,64.70
2018-05-12T07:35:57.037Z,64.80
2018-05-12T07:38:24.613Z,64.60
2018-05-12T07:40:52.954Z,64.80
2018-05-12T07:43:20.538Z,64.60
2018-05-12T07:45:48.118Z,64.80
2018-05-12T07:48:16.456Z,64.40
2018-05-12T07:50:43.981Z,64.40
2018-05-12T07:53:12.312Z,64.80
2018-05-12T07:55:39.854Z,64.70
2018-05-12T07:58:07.418Z,64.80
2018-05-12T08:00:34.959Z,65.00
2018-05-12T08:03:02.525Z,65.10
2018-05-12T08:05:30.082Z,65.30
2018-05-12T08:07:57.643Z,65.10
2018-05-12T08:10:25.184Z,65.20
2018-05-12T08:12:52.760Z,65.20
2018-05-12T08:15:20.321Z,65.00
2018-05-12T08:17:47.891Z,64.60
2018-05-12T08:20:15.431Z,64.10
2018-05-12T08:22:43.009Z,63.80
2018-05-12T08:25:10.543Z,63.20
2018-05-12T08:27:38.105Z,62.70
2018-05-12T08:30:05.643Z,62.20
2018-05-12T08:32:33.975Z,61.90
2018-05-12T08:35:01.586Z,61.90
2018-05-12T08:37:29.105Z,61.80
2018-05-12T08:39:56.645Z,61.50
2018-05-12T08:42:24.216Z,61.20
2018-05-12T08:44:51.770Z,61.80
2018-05-12T08:47:19.335Z,60.90
2018-05-12T08:49:46.879Z,61.10
2018-05-12T08:52:14.439Z,60.70
2018-05-12T08:54:41.984Z,60.40
2018-05-12T08:57:10.296Z,59.70
2018-05-12T08:59:37.913Z,59.60
2018-05-12T09:02:05.447Z,59.70
2018-05-12T09:04:33.771Z,58.70
2018-05-12T09:07:01.305Z,58.70
2018-05-12T09:09:28.869Z,58.20
2018-05-12T09:11:56.408Z,58.20
2018-05-12T09:14:24.738Z,57.90
2018-05-12T09:16:52.281Z,57.90
2018-05-12T09:19:19.864Z,57.70
2018-05-12T09:21:47.385Z,57.40
2018-05-12T09:24:14.945Z,57.40
2018-05-12T09:26:42.476Z,57.50
2018-05-12T09:29:10.040Z,57.30
2018-05-12T09:31:37.580Z,57.20
2018-05-12T09:34:05.149Z,56.80
2018-05-12T09:36:32.678Z,56.70
2018-05-12T09:39:00.241Z,56.40
2018-05-12T09:41:27.766Z,56.40
2018-05-12T09:43:55.329Z,56.40
2018-05-12T09:46:22.864Z,56.00
2018-05-12T09:48:50.439Z,56.10
2018-05-12T09:51:17.981Z,55.80
2018-05-12T09:53:46.335Z,55.10
2018-05-12T09:56:13.873Z,55.00
2018-05-12T09:58:41.431Z,54.50
2018-05-12T10:01:08.958Z,54.10
2018-05-12T10:03:36.541Z,54.20
2018-05-12T10:06:04.073Z,53.60
2018-05-12T10:08:32.448Z,52.70
2018-05-12T10:11:00.735Z,52.60
2018-05-12T10:13:29.065Z,52.00
2018-05-12T10:15:56.603Z,52.00
2018-05-12T10:18:24.168Z,51.70
2018-05-12T10:20:51.696Z,51.70
2018-05-12T10:23:19.256Z,52.10
2018-05-12T10:25:46.777Z,51.40
2018-05-12T10:28:14.324Z,51.00
2018-05-12T10:30:41.857Z,51.50
2018-05-12T10:33:09.396Z,50.60
2018-05-12T10:35:37.722Z,50.30
2018-05-12T10:38:05.251Z,50.20
2018-05-12T10:40:32.811Z,50.20
2018-05-12T10:43:00.338Z,50.00
2018-05-12T10:45:27.988Z,49.80
2018-05-12T10:47:55.458Z,49.50
2018-05-12T10:50:23.029Z,49.10
2018-05-12T10:52:51.338Z,49.30
2018-05-12T10:55:18.928Z,49.30
2018-05-12T10:57:46.499Z,49.40
2018-05-12T11:00:14.091Z,49.30
2018-05-12T11:02:42.405Z,48.50
2018-05-12T11:05:09.970Z,48.40
2018-05-12T11:07:37.502Z,47.80
2018-05-12T11:10:05.073Z,47.40
2018-05-12T11:12:32.622Z,47.10
2018-05-12T11:15:00.186Z,46.90
2018-05-12T11:17:27.725Z,46.90
2018-05-12T11:19:56.067Z,47.30
2018-05-12T11:22:23.614Z,47.30
2018-05-12T11:24:51.174Z,46.80
2018-05-12T11:27:18.704Z,46.60
2018-05-12T11:29:46.271Z,45.90
2018-05-12T11:32:13.858Z,45.50
2018-05-12T11:34:41.373Z,45.10
2018-05-12T11:37:09.686Z,44.90
2018-05-12T11:39:37.253Z,44.90
2018-05-12T11:42:04.792Z,44.00
2018-05-12T11:44:32.412Z,44.20
2018-05-12T11:46:59.887Z,43.90
2018-05-12T11:49:27.516Z,43.90
2018-05-12T11:51:55.056Z,44.10
2018-05-12T11:54:22.617Z,44.00
2018-05-12T11:56:50.165Z,44.00
2018-05-12T11:59:17.725Z,43.60
2018-05-12T12:01:45.268Z,43.30
2018-05-12T12:04:12.812Z,43.30
2018-05-12T12:06:40.380Z,42.90
2018-05-12T12:09:07.919Z,42.30
2018-05-12T12:11:35.485Z,42.00
2018-05-12T12:14:03.027Z,41.70
2018-05-12T12:16:30.678Z,41.70
2018-05-12T12:18:58.152Z,41.10
2018-05-12T12:21:25.716Z,41.10
2018-05-12T12:23:53.255Z,40.60
2018-05-12T12:26:20.814Z,40.40
2018-05-12T12:28:48.354Z,40.10
2018-05-12T12:31:15.931Z,40.00
2018-05-12T12:33:43.719Z,39.80
2018-05-12T12:36:11.292Z,39.10
2018-05-12T12:38:39.605Z,39.00
2018-05-12T12:41:07.173Z,38.90
2018-05-12T12:43:34.714Z,38.80
2018-05-12T12:46:02.290Z,39.00
2018-05-12T12:48:29.833Z,39.10
2018-05-12T12:50:57.396Z,39.00
2018-05-12T12:53:24.934Z,39.10
2018-05-12T12:55:53.281Z,40.00
2018-05-12T12:58:20.859Z,39.20
2018-05-12T13:00:48.430Z,38.90
2018-05-12T13:03:15.975Z,38.60
2018-05-12T13:05:43.542Z,38.60
2018-05-12T13:08:11.072Z,38.10
2018-05-12T13:10:38.645Z,38.00
2018-05-12T13:13:06.186Z,37.90
2018-05-12T13:15:33.760Z,37.80
2018-05-12T13:18:01.330Z,37.70
2018-05-12T13:20:28.893Z,37.70
2018-05-12T13:22:56.430Z,37.90
2018-05-12T13:25:23.987Z,38.00
2018-05-12T13:27:51.543Z,37.90
2018-05-12T13:30:19.103Z,37.90
2018-05-12T13:32:46.646Z,37.90
2018-05-12T13:35:14.173Z,38.00
2018-05-12T13:37:42.500Z,37.90
2018-05-12T13:40:10.041Z,37.90
2018-05-12T13:42:37.604Z,37.60
2018-05-12T13:45:05.153Z,37.60
2018-05-12T13:47:32.776Z,37.60
2018-05-12T13:50:00.321Z,37.00
2018-05-12T13:52:27.880Z,36.90
2018-05-12T13:54:55.424Z,36.70
2018-05-12T13:57:22.991Z,36.90
2018-05-12T13:59:50.525Z,36.60
2018-05-12T14:02:18.108Z,36.70
2018-05-12T14:04:45.641Z,36.90
2018-05-12T14:07:13.208Z,37.00
2018-05-12T14:09:40.752Z,37.20
2018-05-12T14:12:09.099Z,38.00
2018-05-12T14:14:36.645Z,38.00
2018-05-12T14:17:04.213Z,38.30
2018-05-12T14:19:31.784Z,38.20
2018-05-12T14:22:00.153Z,37.50
2018-05-12T14:24:27.688Z,37.40
2018-05-12T14:26:55.252Z,37.00
2018-05-12T14:29:22.795Z,36.80
2018-05-12T14:31:50.354Z,36.70
2018-05-12T14:34:17.902Z,36.40
2018-05-12T14:36:45.469Z,36.80
2018-05-12T14:39:13.013Z,37.40
2018-05-12T14:41:41.351Z,36.80
2018-05-12T14:44:08.897Z,36.70
2018-05-12T14:46:36.466Z,36.50
2018-05-12T14:49:04.008Z,36.40
2018-05-12T14:51:31.605Z,36.30
2018-05-12T14:53:59.151Z,36.00
2018-05-12T14:56:26.715Z,36.00
2018-05-12T14:58:54.258Z,35.70
2018-05-12T15:01:21.830Z,35.60
2018-05-12T15:03:49.373Z,35.60
2018-05-12T15:06:16.961Z,35.60
2018-05-12T15:08:44.496Z,35.40
2018-05-12T15:11:12.045Z,35.40
2018-05-12T15:13:39.613Z,35.20
2018-05-12T15:16:07.172Z,35.10
2018-05-12T15:18:34.746Z,35.10
2018-05-12T15:21:02.290Z,35.20
2018-05-12T15:23:29.870Z,35.10
2018-05-12T15:25:57.413Z,35.20
2018-05-12T15:28:24.991Z,35.20
2018-05-12T15:30:52.533Z,35.10
2018-05-12T15:33:20.125Z,35.20
2018-05-12T15:35:47.673Z,35.40
2018-05-12T15:38:15.246Z,35.70
2018-05-12T15:40:42.798Z,35.80
2018-05-12T15:43:10.362Z,36.10
2018-05-12T15:45:37.911Z,36.20
2018-05-12T15:48:05.489Z,36.20
2018-05-12T15:50:33.038Z,36.50
2018-05-12T15:53:00.613Z,36.50
2018-05-12T15:55:28.161Z,36.40
2018-05-12T15:57:55.803Z,36.40
2018-05-12T16:00:23.336Z,36.50
2018-05-12T16:02:50.915Z,36.40
2018-05-12T16:05:18.462Z,36.30
2018-05-12T16:07:46.041Z,36.40
2018-05-12T16:10:13.589Z,36.70
2018-05-12T16:12:41.158Z,36.90
2018-05-12T16:15:08.705Z,37.10
2018-05-12T16:17:36.276Z,37.40
2018-05-12T16:20:03.826Z,37.40
2018-05-12T16:22:31.393Z,37.40
2018-05-12T16:24:58.928Z,37.60
2018-05-12T16:27:26.510Z,37.60
2018-05-12T16:29:54.055Z,37.60
2018-05-12T16:32:21.637Z,37.60
2018-05-12T16:34:49.190Z,37.60
2018-05-12T16:37:16.745Z,37.70
2018-05-12T16:39:44.322Z,37.80
2018-05-12T16:42:11.863Z,37.90
2018-05-12T16:44:39.472Z,38.10
2018-05-12T16:47:07.006Z,38.20
2018-05-12T16:49:34.580Z,38.30
2018-05-12T16:52:02.210Z,38.40
2018-05-12T16:54:30.555Z,38.60
2018-05-12T16:56:58.109Z,38.90
2018-05-12T16:59:25.689Z,39.20
2018-05-12T17:01:53.230Z,39.60
2018-05-12T17:04:20.804Z,39.80
2018-05-12T17:06:48.362Z,39.80
2018-05-12T17:09:15.928Z,39.80
2018-05-12T17:11:43.483Z,39.80
2018-05-12T17:14:11.058Z,39.90
2018-05-12T17:16:38.614Z,40.10
2018-05-12T17:19:06.190Z,40.40
2018-05-12T17:21:33.729Z,40.50
2018-05-12T17:24:01.292Z,40.60
2018-05-12T17:26:28.833Z,40.70
2018-05-12T17:28:56.407Z,40.90
2018-05-12T17:31:23.949Z,41.20
2018-05-12T17:33:51.523Z,41.60
2018-05-12T17:36:19.833Z,42.60
2018-05-12T17:38:47.411Z,42.20
2018-05-12T17:41:14.953Z,42.40
2018-05-12T17:43:42.530Z,42.60
2018-05-12T17:46:10.081Z,43.00
2018-05-12T17:48:37.641Z,43.20
2018-05-12T17:51:05.190Z,43.40
2018-05-12T17:53:33.522Z,43.80
2018-05-12T17:56:01.072Z,43.80
2018-05-12T17:58:28.642Z,44.10
2018-05-12T18:00:56.186Z,44.20
2018-05-12T18:03:23.757Z,44.50
2018-05-12T18:05:51.337Z,44.80
2018-05-12T18:08:18.880Z,45.10
2018-05-12T18:10:46.456Z,45.40
2018-05-12T18:13:14.002Z,45.60
2018-05-12T18:15:41.577Z,45.80
2018-05-12T18:18:09.125Z,45.90
2018-05-12T18:20:36.699Z,46.20
2018-05-12T18:23:04.280Z,46.40
2018-05-12T18:25:31.820Z,46.70
2018-05-12T18:27:59.368Z,46.80
2018-05-12T18:30:26.949Z,47.10
2018-05-12T18:32:54.494Z,47.20
2018-05-12T18:35:22.872Z,47.60
2018-05-12T18:37:50.413Z,47.50
2018-05-12T18:40:17.990Z,47.70
2018-05-12T18:42:45.542Z,47.90
2018-05-12T18:45:13.114Z,48.10
2018-05-12T18:47:40.661Z,48.30
2018-05-12T18:50:08.234Z,48.60
2018-05-12T18:52:35.775Z,48.80
2018-05-12T18:55:03.350Z,49.10
2018-05-12T18:57:30.895Z,49.40
2018-05-12T18:59:58.469Z,49.60
2018-05-12T19:02:26.026Z,49.80
2018-05-12T19:04:53.607Z,50.10
2018-05-12T19:07:21.154Z,50.30
2018-05-12T19:09:48.735Z,50.50
2018-05-12T19:12:16.295Z,50.80
2018-05-12T19:14:43.871Z,51.20
2018-05-12T19:17:11.454Z,51.10
2018-05-12T19:19:39.024Z,51.30
2018-05-12T19:22:06.575Z,51.60
2018-05-12T19:24:34.141Z,51.80
2018-05-12T19:27:01.693Z,52.00
2018-05-12T19:29:29.257Z,52.30
2018-05-12T19:31:56.794Z,52.60
2018-05-12T19:34:24.339Z,52.80
2018-05-12T19:36:51.910Z,52.90
2018-05-12T19:39:20.224Z,53.20
2018-05-12T19:41:47.795Z,53.20
2018-05-12T19:44:15.332Z,53.40
2018-05-12T19:46:42.905Z,53.40
2018-05-12T19:49:10.455Z,53.50
2018-05-12T19:51:38.033Z,53.80
2018-05-12T19:54:05.583Z,53.90
2018-05-12T19:56:33.165Z,54.00
2018-05-12T19:59:00.718Z,54.10
2018-05-12T20:01:28.299Z,54.20
2018-05-12T20:03:55.858Z,54.40
2018-05-12T20:06:23.426Z,54.50
2018-05-12T20:08:50.976Z,54.70
2018-05-12T20:11:18.545Z,54.80
2018-05-12T20:13:46.099Z,55.00
2018-05-12T20:16:13.672Z,55.10
2018-05-12T20:18:41.220Z,55.30
2018-05-12T20:21:08.794Z,55.50
2018-05-12T20:23:36.344Z,55.70
2018-05-12T20:26:03.918Z,55.70
2018-05-12T20:28:31.474Z,55.80
2018-05-12T20:30:59.074Z,55.90
2018-05-12T20:33:26.621Z,56.00
2018-05-12T20:35:54.958Z,56.30
2018-05-12T20:38:22.511Z,56.20
2018-05-12T20:40:50.105Z,56.30
2018-05-12T20:43:17.646Z,56.40
2018-05-12T20:45:45.231Z,56.60
2018-05-12T20:48:12.772Z,56.70
2018-05-12T20:50:40.353Z,57.00
2018-05-12T20:53:08.662Z,56.90
2018-05-12T20:55:36.205Z,57.30
2018-05-12T20:58:03.772Z,57.40
2018-05-12T21:00:31.308Z,57.60
2018-05-12T21:02:58.945Z,57.70
2018-05-12T21:05:26.451Z,57.80
2018-05-12T21:07:54.030Z,58.00
2018-05-12T21:10:21.572Z,58.00
2018-05-12T21:12:49.146Z,58.20
2018-05-12T21:15:16.745Z,58.30
2018-05-12T21:17:44.327Z,58.50
2018-05-12T21:20:11.873Z,58.80
2018-05-12T21:22:39.457Z,58.80
2018-05-12T21:25:07.003Z,59.00
2018-05-12T21:27:34.580Z,59.10
2018-05-12T21:30:02.114Z,59.20
2018-05-12T21:32:29.696Z,59.30
2018-05-12T21:34:57.226Z,59.30
2018-05-12T21:37:24.804Z,59.40
2018-05-12T21:39:52.359Z,59.50
2018-05-12T21:42:19.905Z,59.50
2018-05-12T21:44:47.475Z,59.60
2018-05-12T21:47:15.022Z,59.80
2018-05-12T21:49:42.597Z,59.90
2018-05-12T21:52:10.145Z,60.00
2018-05-12T21:54:37.713Z,60.30
2018-05-12T21:57:05.264Z,60.40
2018-05-12T21:59:32.847Z,60.60
2018-05-12T22:02:00.384Z,60.60
2018-05-12T22:04:27.958Z,60.80
2018-05-12T22:06:55.522Z,61.00
2018-05-12T22:09:23.135Z,61.10
2018-05-12T22:11:50.686Z,61.30
2018-05-12T22:14:18.266Z,61.40
2018-05-12T22:16:45.809Z,61.60
2018-05-12T22:19:13.386Z,61.80
2018-05-12T22:21:40.925Z,61.90
2018-05-12T22:24:08.500Z,62.10
2018-05-12T22:26:36.045Z,62.10
2018-05-12T22:29:03.626Z,62.30
2018-05-12T22:31:31.194Z,62.40
2018-05-12T22:33:58.767Z,62.70
2018-05-12T22:36:26.308Z,62.70
2018-05-12T22:38:53.878Z,62.70
2018-05-12T22:41:21.429Z,62.90
2018-05-12T22:43:48.992Z,63.00
2018-05-12T22:46:16.535Z,63.10
2018-05-12T22:48:44.085Z,63.20
2018-05-12T22:51:11.659Z,63.40
2018-05-12T22:53:39.224Z,63.50
2018-05-12T22:56:06.784Z,63.70
2018-05-12T22:58:34.330Z,63.80
2018-05-12T23:01:01.927Z,63.90
2018-05-12T23:03:29.472Z,63.90
2018-05-12T23:05:57.040Z,64.00
2018-05-12T23:08:24.595Z,64.30
2018-05-12T23:10:52.181Z,64.30
2018-05-12T23:13:19.730Z,64.40
2018-05-12T23:15:47.305Z,64.60
2018-05-12T23:18:14.841Z,64.50
2018-05-12T23:20:42.410Z,64.70
2018-05-12T23:23:09.950Z,64.70
2018-05-12T23:25:37.546Z,64.70
2018-05-12T23:28:05.089Z,64.90
2018-05-12T23:30:32.666Z,65.00
2018-05-12T23:33:00.213Z,65.30
2018-05-12T23:35:27.777Z,65.30
2018-05-12T23:37:55.392Z,65.50
2018-05-12T23:40:22.894Z,65.70
2018-05-12T23:42:50.475Z,65.80
2018-05-12T23:45:18.019Z,66.00
2018-05-12T23:47:45.606Z,66.20
2018-05-12T23:50:13.159Z,66.30
2018-05-12T23:52:40.736Z,66.30
2018-05-12T23:55:08.285Z,66.60
2018-05-12T23:57:35.875Z,67.10
